Terminal Aerodrome Forecast
Issued by NWS

Home | Current Version | Previous Version | Graphics & Text | Print | Product List | Glossary On
Versions: 1 2 3 4 5 6 7 8 9 10 11 12 13 14 15
000
FTUS42 KMHX 151720
TAFISO
TAF
KISO 151720Z 1518/1618 04010KT P6SM VCSH SCT015 BKN020
     FM152200 03005KT 5SM -RA BKN030
     FM160500 04006KT P6SM VCSH OVC035
      AMD LTD TO CLD VIS AND WIND=

USA.gov is the U.S. government's official web portal to all federal, state and local government web resources and services.